Tropical Cyclones
[Index]
Main Index Home Page Stock Weather Photos Extreme Storms Discussion Storm News and Storm Chasing Reports Tropical Cyclones / Hurricanes / Typhoons Weather Data and Links Wild Fires / Bushfires Weather Observation Techniques Weather Picture Catalogue Tornado Pictures and Reports Stock Video Footage and DVDs for sale
Season 1968-1969 Tropical Cyclone 196869_15 Track Map
Season 1968-1969 Summaries: [BoM-AU] [JTWC-AU] [JTWC-SIO] [JTWC-SPAC] [JTWC-SH]
<<- Previous TC | BoM 1968-1969 Season | Next TC ->>

click for intensity scale information  Lat/long Grid: Show Hide

 Date Labels: Show Hide

Bureau of Meteorology Tropical Cyclone Data

Name: 196869_15
Number: 448 / 196869_15

08 Apr 1969 11:00 UTC to 15 Apr 1969 23:00 UTC

    date/time    lat    long    hPa   cat  kts
1969-04-08 11   11.3   156.0   1007                     
1969-04-08 17   11.2   155.8   1005                     
1969-04-08 20   11.1   155.7   1005                     
1969-04-08 23   11.1   155.7   1006                     
1969-04-09 02   11.0   155.6   1005                     
1969-04-09 05   11.0   155.5   1004                     
1969-04-09 08   11.0   155.4   1005                     
1969-04-09 11   10.9   155.3   1006                     
1969-04-09 14   10.9   155.3   1005                     
1969-04-09 17   10.9   155.2   1003                     
1969-04-09 20   10.9   155.0   1003                     
1969-04-09 23   10.9   154.9   1004                     
1969-04-10 02   10.9   154.8   1003                     
1969-04-10 05   11.0   154.7   1001                     
1969-04-10 08   11.1   154.6   1001                     
1969-04-10 11   11.2   154.5   1001                     
1969-04-10 14   11.2   154.4   1001                     
1969-04-10 17   11.3   154.3   1001                     
1969-04-10 23   11.5   154.2   1001                     
1969-04-11 02   11.6   154.1   1001                     
1969-04-11 05   11.7   154.0   1000                     
1969-04-11 08   11.8   154.0   1000                     
1969-04-11 11   11.8   153.9   1000                     
1969-04-11 14   11.9   153.8   1000                     
1969-04-11 17   12.0   153.7   1000                     
1969-04-11 20   12.1   153.6    999                     
1969-04-11 23   12.2   153.6    998                     
1969-04-12 02   12.3   153.5    998                     
1969-04-12 05   12.4   153.4    998                     
1969-04-12 08   12.6   153.2    998                     
1969-04-12 11   12.7   153.1    999                     
1969-04-12 14   12.9   152.8    999                     
1969-04-12 17   13.0   152.7    998                     
1969-04-12 20   13.2   152.5    997                     
1969-04-12 23   13.4   152.3    996                     
1969-04-13 02   13.6   152.3    996                     
1969-04-13 05   13.9   152.2    996                     
1969-04-13 08   14.1   152.2    997                     
1969-04-13 11   14.3   152.2    998                     
1969-04-13 14   14.5   152.3    998                     
1969-04-13 17   14.7   152.3    998                     
1969-04-13 20   15.0   152.3    998                     
1969-04-13 23   15.2   152.3    998                     
1969-04-14 02   15.5   152.4    999                     
1969-04-14 05   15.8   152.4    999                     
1969-04-14 08   16.0   152.4    999                     
1969-04-14 11   16.2   152.5   1000                     
1969-04-14 14   16.4   152.6   1000                     
1969-04-14 17   16.6   152.6   1000                     
1969-04-14 20   17.0   152.9   1000                     
1969-04-14 23   17.4   153.2   1001                     
1969-04-15 02   18.0   153.9   1001                     
1969-04-15 05   18.5   154.6   1001                     
1969-04-15 08   19.3   155.6   1001                     
1969-04-15 11   20.1   156.7   1002                     
1969-04-15 14   20.5   157.1   1002                     
1969-04-15 17   21.0   157.5   1002                     
1969-04-15 20   21.5   157.8   1002                     
1969-04-15 23   22.1   158.0   1003                     
Winds are 10-min average.

Tropical cyclone tracks developed by Michael Bath using data from the Bureau of Meteorology and Google Maps.


[Australian Severe Weather index] [Copyright Notice] [Email Contacts] [Search This Site] [Privacy Policy]
Document: tropical_cyclone_196869_15.htm Updated: 30 May 2013